createdAt,value
2023-04-18T00:00:19.061Z,25.20
2023-04-18T00:01:19.065Z,25.20
2023-04-18T00:02:19.175Z,25.22
2023-04-18T00:03:19.277Z,25.20
2023-04-18T00:04:19.617Z,25.20
2023-04-18T00:05:19.183Z,25.22
2023-04-18T00:06:19.099Z,25.23
2023-04-18T00:07:19.131Z,25.22
2023-04-18T00:08:19.164Z,25.19
2023-04-18T00:09:19.208Z,25.20
2023-04-18T00:10:19.200Z,25.19
2023-04-18T00:11:19.145Z,25.22
2023-04-18T00:12:19.158Z,25.20
2023-04-18T00:13:19.170Z,25.19
2023-04-18T00:14:19.150Z,25.19
2023-04-18T00:15:19.163Z,25.20
2023-04-18T00:16:19.188Z,25.20
2023-04-18T00:17:19.235Z,25.22
2023-04-18T00:18:19.216Z,25.22
2023-04-18T00:19:19.174Z,25.19
2023-04-18T00:20:19.224Z,25.22
2023-04-18T00:21:19.229Z,25.22
2023-04-18T00:22:19.223Z,25.19
2023-04-18T00:23:19.255Z,25.20
2023-04-18T00:24:19.256Z,25.20
2023-04-18T00:25:19.244Z,25.23
2023-04-18T00:26:19.257Z,25.20
2023-04-18T00:27:19.296Z,25.22
2023-04-18T00:28:19.310Z,25.19
2023-04-18T00:29:19.301Z,25.17
2023-04-18T00:30:19.331Z,25.19
2023-04-18T00:31:19.379Z,25.20
2023-04-18T00:32:19.387Z,25.20
2023-04-18T00:33:19.372Z,25.20
2023-04-18T00:34:19.378Z,25.22
2023-04-18T00:35:19.387Z,25.20
2023-04-18T00:36:19.408Z,25.20
2023-04-18T00:37:19.425Z,25.20
2023-04-18T00:38:19.374Z,25.19
2023-04-18T00:39:19.391Z,25.16
2023-04-18T00:40:19.395Z,25.17
2023-04-18T00:41:19.421Z,25.19
2023-04-18T00:42:19.450Z,25.22
2023-04-18T00:43:19.438Z,25.19
2023-04-18T00:44:19.446Z,25.20
2023-04-18T00:45:19.434Z,25.20
2023-04-18T00:46:19.490Z,25.22
2023-04-18T00:47:19.503Z,25.20
2023-04-18T00:48:19.465Z,25.20
2023-04-18T00:49:19.494Z,25.20
2023-04-18T00:50:19.462Z,25.17
2023-04-18T00:51:19.506Z,25.20
2023-04-18T00:52:19.490Z,25.22
2023-04-18T00:53:19.496Z,25.17
2023-04-18T00:54:19.502Z,25.22
2023-04-18T00:55:19.523Z,25.17
2023-04-18T00:56:19.507Z,25.20
2023-04-18T00:57:19.520Z,25.22
2023-04-18T00:58:19.530Z,25.16
2023-04-18T00:59:19.593Z,25.20
2023-04-18T01:00:19.564Z,25.17
2023-04-18T01:01:19.578Z,25.17
2023-04-18T01:02:19.725Z,25.19
2023-04-18T01:03:19.660Z,25.17
2023-04-18T01:04:19.859Z,25.19
2023-04-18T01:05:19.621Z,25.17
2023-04-18T01:06:19.626Z,25.20
2023-04-18T01:07:19.633Z,25.19
2023-04-18T01:08:19.669Z,25.20
2023-04-18T01:09:19.714Z,25.19
2023-04-18T01:10:19.693Z,25.17
2023-04-18T01:11:19.716Z,25.17
2023-04-18T01:12:19.741Z,25.17
2023-04-18T01:13:19.766Z,25.20
2023-04-18T01:14:19.792Z,25.19
2023-04-18T01:15:19.794Z,25.16
2023-04-18T01:16:19.850Z,25.20
2023-04-18T01:17:19.829Z,25.20
2023-04-18T01:18:19.841Z,25.19
2023-04-18T01:19:19.863Z,25.19
2023-04-18T01:20:19.907Z,25.16
2023-04-18T01:21:19.926Z,25.19
2023-04-18T01:22:19.908Z,25.16
2023-04-18T01:23:19.902Z,25.17
2023-04-18T01:24:19.927Z,25.16
2023-04-18T01:25:19.929Z,25.17
2023-04-18T01:26:19.949Z,25.16
2023-04-18T01:27:19.987Z,25.17
2023-04-18T01:28:19.949Z,25.19
2023-04-18T01:29:19.986Z,25.17
2023-04-18T01:30:19.981Z,25.19
2023-04-18T01:31:20.055Z,25.17
2023-04-18T01:32:20.083Z,25.19
2023-04-18T01:33:20.041Z,25.17
2023-04-18T01:34:20.060Z,25.19
2023-04-18T01:35:20.081Z,25.17
2023-04-18T01:36:20.089Z,25.19
2023-04-18T01:37:20.117Z,25.19
2023-04-18T01:38:20.109Z,25.17
2023-04-18T01:39:20.123Z,25.19
2023-04-18T01:40:20.154Z,25.19
2023-04-18T01:41:20.454Z,25.17
2023-04-18T01:42:20.213Z,25.16
2023-04-18T01:43:20.174Z,25.16
2023-04-18T01:44:20.192Z,25.17
2023-04-18T01:45:20.219Z,25.16
2023-04-18T01:46:20.272Z,25.14
2023-04-18T01:47:20.656Z,25.14
2023-04-18T01:48:20.643Z,25.14
2023-04-18T01:49:20.319Z,25.14
2023-04-18T01:50:20.276Z,25.16
2023-04-18T01:51:20.283Z,25.16
2023-04-18T01:52:20.269Z,25.14
2023-04-18T01:53:20.298Z,25.17
2023-04-18T01:54:20.288Z,25.16
2023-04-18T01:55:20.281Z,25.17
2023-04-18T01:56:20.346Z,25.16
2023-04-18T01:57:20.320Z,25.14
2023-04-18T01:58:20.328Z,25.16
2023-04-18T01:59:20.357Z,25.16
2023-04-18T02:00:20.384Z,25.17
2023-04-18T02:01:20.596Z,25.19
2023-04-18T02:02:20.598Z,25.17
2023-04-18T02:03:20.604Z,25.19
2023-04-18T02:04:20.456Z,25.19
2023-04-18T02:05:20.437Z,25.22
2023-04-18T02:06:20.465Z,25.20
2023-04-18T02:07:20.474Z,25.22
2023-04-18T02:08:20.490Z,25.22
2023-04-18T02:09:20.509Z,25.23
2023-04-18T02:10:20.519Z,25.23
2023-04-18T02:11:20.525Z,25.26
2023-04-18T02:12:20.560Z,25.29
2023-04-18T02:13:20.517Z,25.27
2023-04-18T02:14:20.546Z,25.30
2023-04-18T02:15:20.546Z,25.33
2023-04-18T02:16:20.700Z,25.34
2023-04-18T02:17:20.636Z,25.37
2023-04-18T02:18:20.579Z,25.37
2023-04-18T02:19:20.569Z,25.38
2023-04-18T02:20:20.608Z,25.40
2023-04-18T02:21:20.610Z,25.43
2023-04-18T02:22:20.626Z,25.45
2023-04-18T02:23:20.575Z,25.50
2023-04-18T02:24:20.623Z,25.48
2023-04-18T02:25:20.610Z,25.53
2023-04-18T02:26:20.568Z,25.53
2023-04-18T02:27:20.591Z,25.55
2023-04-18T02:28:20.578Z,25.55
2023-04-18T02:29:20.588Z,25.60
2023-04-18T02:30:20.582Z,25.60
2023-04-18T02:31:20.594Z,25.63
2023-04-18T02:32:20.602Z,25.64
2023-04-18T02:33:20.564Z,25.67
2023-04-18T02:34:20.560Z,25.70
2023-04-18T02:35:20.565Z,25.70
2023-04-18T02:36:20.556Z,25.70
2023-04-18T02:37:20.524Z,25.74
2023-04-18T02:38:20.529Z,25.75
2023-04-18T02:39:20.483Z,25.77
2023-04-18T02:40:20.472Z,25.75
2023-04-18T02:41:20.461Z,25.78
2023-04-18T02:42:20.451Z,25.81
2023-04-18T02:43:20.460Z,25.78
2023-04-18T02:44:20.392Z,25.84
2023-04-18T02:45:20.411Z,25.85
2023-04-18T02:46:20.471Z,25.84
2023-04-18T02:47:20.388Z,25.85
2023-04-18T02:48:20.384Z,25.88
2023-04-18T02:49:20.336Z,25.89
2023-04-18T02:50:20.340Z,25.89
2023-04-18T02:51:20.333Z,25.91
2023-04-18T02:52:20.311Z,25.91
2023-04-18T02:53:20.271Z,25.95
2023-04-18T02:54:20.290Z,25.95
2023-04-18T02:55:20.287Z,25.96
2023-04-18T02:56:20.262Z,25.95
2023-04-18T02:57:20.279Z,25.95
2023-04-18T02:58:20.238Z,25.96
2023-04-18T02:59:20.220Z,26.01
2023-04-18T03:00:20.227Z,26.01
2023-04-18T03:01:20.205Z,26.01
2023-04-18T03:02:20.235Z,26.02
2023-04-18T03:03:20.221Z,26.04
2023-04-18T03:04:20.202Z,26.02
2023-04-18T03:05:20.118Z,26.02
2023-04-18T03:06:20.122Z,26.02
2023-04-18T03:07:20.124Z,26.04
2023-04-18T03:08:20.099Z,26.04
2023-04-18T03:09:20.091Z,26.08
2023-04-18T03:10:20.083Z,26.08
2023-04-18T03:11:20.035Z,26.08
2023-04-18T03:12:20.037Z,26.11
2023-04-18T03:13:20.029Z,26.09
2023-04-18T03:14:20.023Z,26.12
2023-04-18T03:15:20.014Z,26.09
2023-04-18T03:16:20.058Z,26.09
2023-04-18T03:17:19.924Z,26.14
2023-04-18T03:18:19.958Z,26.12
2023-04-18T03:19:19.876Z,26.11
2023-04-18T03:20:19.892Z,26.14
2023-04-18T03:21:19.867Z,26.15
2023-04-18T03:22:19.861Z,26.14
2023-04-18T03:23:19.830Z,26.15
2023-04-18T03:24:19.826Z,26.15
2023-04-18T03:25:19.769Z,26.16
2023-04-18T03:26:19.771Z,26.19
2023-04-18T03:27:19.721Z,26.16
2023-04-18T03:28:19.694Z,26.19
2023-04-18T03:29:19.672Z,26.21
2023-04-18T03:30:19.713Z,26.21
2023-04-18T03:31:19.654Z,26.19
2023-04-18T03:32:19.663Z,26.22
2023-04-18T03:33:19.619Z,26.22
2023-04-18T03:34:19.574Z,26.21
2023-04-18T03:35:19.537Z,26.25
2023-04-18T03:36:19.521Z,26.23
2023-04-18T03:37:19.485Z,26.23
2023-04-18T03:38:19.494Z,26.26
2023-04-18T03:39:19.466Z,26.26
2023-04-18T03:40:19.417Z,26.26
2023-04-18T03:41:19.423Z,26.26
2023-04-18T03:42:19.360Z,26.26
2023-04-18T03:43:19.362Z,26.26
2023-04-18T03:44:19.338Z,26.28
2023-04-18T03:45:19.319Z,26.28
2023-04-18T03:46:19.341Z,26.28
2023-04-18T03:47:19.322Z,26.29
2023-04-18T03:48:19.255Z,26.28
2023-04-18T03:49:19.214Z,26.29
2023-04-18T03:50:19.200Z,26.31
2023-04-18T03:51:19.173Z,26.32
2023-04-18T03:52:19.162Z,26.31
2023-04-18T03:53:19.150Z,26.31
2023-04-18T03:54:19.129Z,26.31
2023-04-18T03:55:19.114Z,26.31
2023-04-18T03:56:19.148Z,26.32
2023-04-18T03:57:19.085Z,26.35
2023-04-18T03:58:19.051Z,26.32
2023-04-18T03:59:19.056Z,26.33
2023-04-18T04:00:19.050Z,26.33
2023-04-18T04:01:19.024Z,26.35
2023-04-18T04:02:19.220Z,26.35
2023-04-18T04:03:19.090Z,26.33
2023-04-18T04:04:19.154Z,26.38
2023-04-18T04:05:18.954Z,26.36
2023-04-18T04:06:18.875Z,26.38
2023-04-18T04:07:18.845Z,26.38
2023-04-18T04:08:18.878Z,26.39
2023-04-18T04:09:18.809Z,26.38
2023-04-18T04:10:18.758Z,26.39
2023-04-18T04:11:18.779Z,26.40
2023-04-18T04:12:18.748Z,26.40
2023-04-18T04:13:18.737Z,26.40
2023-04-18T04:14:18.755Z,26.39
2023-04-18T04:15:18.709Z,26.40
2023-04-18T04:16:18.746Z,26.40
2023-04-18T04:17:18.678Z,26.43
2023-04-18T04:18:18.682Z,26.42
2023-04-18T04:19:18.701Z,26.43
2023-04-18T04:20:18.672Z,26.43
2023-04-18T04:21:20.065Z,26.43
2023-04-18T04:22:18.709Z,26.45
2023-04-18T04:23:18.678Z,26.43
2023-04-18T04:24:18.692Z,26.45
2023-04-18T04:25:18.672Z,26.45
2023-04-18T04:26:18.634Z,26.46
2023-04-18T04:27:18.678Z,26.46
2023-04-18T04:28:18.666Z,26.46
2023-04-18T04:29:18.619Z,26.46
2023-04-18T04:30:18.642Z,26.46
2023-04-18T04:31:18.680Z,26.47
2023-04-18T04:32:18.663Z,26.46
2023-04-18T04:33:18.637Z,26.47
2023-04-18T04:34:18.652Z,26.47
2023-04-18T04:35:18.614Z,26.46
2023-04-18T04:36:19.073Z,26.46
2023-04-18T04:37:18.710Z,26.46
2023-04-18T04:38:18.621Z,26.50
2023-04-18T04:39:18.588Z,26.47
2023-04-18T04:40:18.592Z,26.46
2023-04-18T04:41:18.596Z,26.46
2023-04-18T04:42:18.609Z,26.46
2023-04-18T04:43:18.584Z,26.47
2023-04-18T04:44:18.612Z,26.46
2023-04-18T04:45:18.578Z,26.45
2023-04-18T04:46:18.675Z,26.46
2023-04-18T04:47:18.588Z,26.45
2023-04-18T04:48:18.587Z,26.46
2023-04-18T04:49:18.582Z,26.46
2023-04-18T04:50:18.603Z,26.45
2023-04-18T04:51:18.616Z,26.46
2023-04-18T04:52:18.601Z,26.45
2023-04-18T04:53:18.610Z,26.43
2023-04-18T04:54:18.631Z,26.42
2023-04-18T04:55:18.628Z,26.43
2023-04-18T04:56:18.655Z,26.42
2023-04-18T04:57:18.648Z,26.43
2023-04-18T04:58:18.654Z,26.43
2023-04-18T04:59:18.649Z,26.43
2023-04-18T05:00:18.658Z,26.40
2023-04-18T05:01:26.462Z,26.40
2023-04-18T05:02:18.732Z,26.42
2023-04-18T05:03:18.854Z,26.42
2023-04-18T05:04:18.904Z,26.42
2023-04-18T05:05:18.536Z,26.42
2023-04-18T05:06:18.508Z,26.39
2023-04-18T05:07:18.518Z,26.38
2023-04-18T05:08:18.430Z,26.39
2023-04-18T05:09:18.533Z,26.40
2023-04-18T05:10:18.331Z,26.38
2023-04-18T05:11:18.330Z,26.39
2023-04-18T05:12:18.267Z,26.38
2023-04-18T05:13:18.237Z,26.38
2023-04-18T05:14:18.147Z,26.39
2023-04-18T05:15:18.122Z,26.39
2023-04-18T05:16:18.098Z,26.38
2023-04-18T05:17:18.007Z,26.36
2023-04-18T05:18:17.985Z,26.36
2023-04-18T05:19:17.969Z,26.40
2023-04-18T05:20:17.896Z,26.39
2023-04-18T05:21:17.873Z,26.36
2023-04-18T05:22:17.839Z,26.35
2023-04-18T05:23:17.840Z,26.38
2023-04-18T05:24:17.853Z,26.36
2023-04-18T05:25:17.817Z,26.35
2023-04-18T05:26:17.800Z,26.36
2023-04-18T05:27:18.270Z,26.35
2023-04-18T05:28:17.878Z,26.36
2023-04-18T05:29:17.806Z,26.36
2023-04-18T05:30:17.829Z,26.33
2023-04-18T05:31:17.802Z,26.35
2023-04-18T05:32:17.799Z,26.36
2023-04-18T05:33:17.896Z,26.36
2023-04-18T05:34:17.775Z,26.38
2023-04-18T05:35:17.772Z,26.32
2023-04-18T05:36:17.771Z,26.29
2023-04-18T05:37:17.736Z,26.31
2023-04-18T05:38:17.914Z,26.28
2023-04-18T05:39:17.749Z,26.23
2023-04-18T05:40:17.749Z,26.22
2023-04-18T05:41:17.760Z,26.21
2023-04-18T05:42:17.710Z,26.18
2023-04-18T05:43:17.918Z,26.18
2023-04-18T05:44:17.948Z,26.19
2023-04-18T05:45:17.631Z,26.16
2023-04-18T05:46:24.625Z,26.21
2023-04-18T05:47:17.604Z,26.21
2023-04-18T05:48:17.538Z,26.22
2023-04-18T05:49:17.521Z,26.23
2023-04-18T05:50:17.488Z,26.21
2023-04-18T05:51:17.446Z,26.19
2023-04-18T05:52:17.402Z,26.19
2023-04-18T05:53:17.450Z,26.21
2023-04-18T05:54:17.336Z,26.18
2023-04-18T05:55:17.273Z,26.19
2023-04-18T05:56:17.265Z,26.19
2023-04-18T05:57:17.283Z,26.19
2023-04-18T05:58:17.168Z,26.21
2023-04-18T05:59:17.099Z,26.21
2023-04-18T06:00:17.106Z,26.23
2023-04-18T06:01:17.058Z,26.26
2023-04-18T06:02:17.084Z,26.29
2023-04-18T06:03:17.217Z,26.31
2023-04-18T06:04:17.318Z,26.29
2023-04-18T06:05:17.062Z,26.33
2023-04-18T06:06:16.808Z,26.35
2023-04-18T06:07:16.752Z,26.35
2023-04-18T06:08:16.709Z,26.32
2023-04-18T06:09:16.670Z,26.35
2023-04-18T06:10:16.645Z,26.35
2023-04-18T06:11:16.564Z,26.36
2023-04-18T06:12:16.555Z,26.38
2023-04-18T06:13:16.513Z,26.39
2023-04-18T06:14:16.609Z,26.38
2023-04-18T06:15:16.434Z,26.39
2023-04-18T06:16:16.429Z,26.38
2023-04-18T06:17:16.345Z,26.35
2023-04-18T06:18:16.283Z,26.33
2023-04-18T06:19:16.461Z,26.33
2023-04-18T06:20:16.225Z,26.32
2023-04-18T06:21:16.137Z,26.32
2023-04-18T06:22:16.117Z,26.29
2023-04-18T06:23:16.083Z,26.29
2023-04-18T06:24:16.244Z,26.26
2023-04-18T06:25:16.010Z,26.26
2023-04-18T06:26:15.932Z,26.26
2023-04-18T06:27:28.293Z,26.26
2023-04-18T06:28:16.837Z,26.26
2023-04-18T06:29:15.774Z,26.25
2023-04-18T06:30:15.744Z,26.25
2023-04-18T06:31:15.682Z,26.23
2023-04-18T06:32:15.607Z,26.23
2023-04-18T06:33:15.592Z,26.26
2023-04-18T06:34:15.786Z,26.26
2023-04-18T06:35:15.547Z,26.25
2023-04-18T06:36:15.450Z,26.25
2023-04-18T06:37:15.387Z,26.25
2023-04-18T06:38:15.376Z,26.23
2023-04-18T06:39:15.478Z,26.23
2023-04-18T06:40:15.278Z,26.23
2023-04-18T06:41:15.284Z,26.21
2023-04-18T06:42:15.212Z,26.21
2023-04-18T06:43:15.182Z,26.21
2023-04-18T06:44:15.161Z,26.25
2023-04-18T06:45:15.424Z,26.21
2023-04-18T06:46:15.091Z,26.21
2023-04-18T06:47:15.435Z,26.21
2023-04-18T06:48:14.949Z,26.23
2023-04-18T06:49:14.890Z,26.19
2023-04-18T06:50:14.908Z,26.19
2023-04-18T06:51:14.821Z,26.18
2023-04-18T06:52:14.781Z,26.15
2023-04-18T06:53:14.774Z,26.14
2023-04-18T06:54:14.862Z,26.15
2023-04-18T06:55:14.757Z,26.11
2023-04-18T06:56:14.745Z,26.11
2023-04-18T06:57:14.685Z,26.12
2023-04-18T06:58:14.674Z,26.12
2023-04-18T06:59:15.057Z,26.11
2023-04-18T07:00:14.606Z,26.11
2023-04-18T07:01:14.676Z,26.09
2023-04-18T07:02:14.618Z,26.11
2023-04-18T07:03:14.664Z,26.14
2023-04-18T07:04:14.726Z,26.15
2023-04-18T07:05:14.546Z,26.16
2023-04-18T07:06:14.524Z,26.15
2023-04-18T07:07:14.562Z,26.16
2023-04-18T07:08:14.464Z,26.18
2023-04-18T07:09:14.999Z,26.19
2023-04-18T07:10:14.472Z,26.18
2023-04-18T07:11:14.417Z,26.21
2023-04-18T07:12:14.426Z,26.19
2023-04-18T07:13:14.415Z,26.21
2023-04-18T07:14:14.807Z,26.21
2023-04-18T07:15:14.391Z,26.19
2023-04-18T07:16:14.445Z,26.21
2023-04-18T07:17:14.397Z,26.22
2023-04-18T07:18:18.024Z,26.21
2023-04-18T07:19:15.245Z,26.21
2023-04-18T07:20:14.394Z,26.23
2023-04-18T07:21:14.175Z,26.23
2023-04-18T07:22:14.105Z,26.22
2023-04-18T07:23:14.053Z,26.22
2023-04-18T07:24:14.407Z,26.23
2023-04-18T07:25:14.013Z,26.23
2023-04-18T07:26:14.015Z,26.22
2023-04-18T07:27:13.913Z,26.23
2023-04-18T07:28:13.864Z,26.21
2023-04-18T07:29:13.812Z,26.06
2023-04-18T07:30:13.722Z,25.71
2023-04-18T07:31:13.793Z,25.22
2023-04-18T07:32:13.671Z,24.72
2023-04-18T07:33:13.641Z,24.27
2023-04-18T07:34:14.197Z,23.84
2023-04-18T07:35:13.643Z,23.54
2023-04-18T07:36:13.584Z,23.20
2023-04-18T07:37:15.052Z,22.88
2023-04-18T07:38:13.606Z,22.61
2023-04-18T07:39:14.003Z,22.44
2023-04-18T07:40:13.687Z,22.25
2023-04-18T07:41:13.797Z,22.17
2023-04-18T07:42:13.740Z,22.06
2023-04-18T07:43:13.864Z,21.90
2023-04-18T07:44:14.245Z,21.83
2023-04-18T07:45:13.931Z,21.80
2023-04-18T07:46:14.028Z,21.92
2023-04-18T07:47:14.046Z,22.06
2023-04-18T07:48:14.121Z,22.07
2023-04-18T07:49:14.663Z,21.99
2023-04-18T07:50:14.145Z,21.88
2023-04-18T07:51:14.213Z,21.83
2023-04-18T07:52:14.216Z,21.92
2023-04-18T07:53:14.294Z,22.06
2023-04-18T07:54:14.567Z,22.29
2023-04-18T07:55:14.345Z,22.43
2023-04-18T07:56:14.487Z,22.68
2023-04-18T07:57:14.400Z,22.88
2023-04-18T07:58:14.393Z,23.12
2023-04-18T07:59:14.599Z,23.30
2023-04-18T08:00:14.439Z,23.53
2023-04-18T08:01:14.478Z,23.77
2023-04-18T08:02:14.525Z,23.97
2023-04-18T08:03:14.644Z,24.15
2023-04-18T08:04:14.561Z,24.32
2023-04-18T08:05:14.594Z,24.50
2023-04-18T08:06:14.514Z,24.63
2023-04-18T08:07:14.519Z,24.79
2023-04-18T08:08:14.558Z,24.92
2023-04-18T08:09:14.908Z,25.06
2023-04-18T08:10:14.998Z,25.16
2023-04-18T08:11:14.525Z,25.24
2023-04-18T08:12:14.492Z,25.34
2023-04-18T08:13:14.482Z,25.45
2023-04-18T08:14:14.503Z,25.57
2023-04-18T08:15:14.485Z,25.70
2023-04-18T08:16:17.010Z,25.78
2023-04-18T08:17:14.416Z,25.87
2023-04-18T08:18:14.362Z,25.95
2023-04-18T08:19:14.513Z,25.99
2023-04-18T08:20:14.518Z,26.04
2023-04-18T08:21:14.239Z,26.11
2023-04-18T08:22:14.211Z,26.14
2023-04-18T08:23:14.148Z,26.19
2023-04-18T08:24:14.129Z,26.21
2023-04-18T08:25:14.055Z,26.26
2023-04-18T08:26:14.009Z,26.28
2023-04-18T08:27:14.065Z,26.29
2023-04-18T08:28:13.949Z,26.38
2023-04-18T08:29:14.071Z,26.39
2023-04-18T08:30:13.854Z,26.40
2023-04-18T08:31:13.833Z,26.43
2023-04-18T08:32:14.528Z,26.45
2023-04-18T08:33:13.744Z,26.49
2023-04-18T08:34:13.669Z,26.54
2023-04-18T08:35:13.627Z,26.52
2023-04-18T08:36:13.571Z,26.54
2023-04-18T08:37:13.525Z,26.57
2023-04-18T08:38:13.547Z,26.57
2023-04-18T08:39:13.742Z,26.56
2023-04-18T08:40:13.530Z,26.54
2023-04-18T08:41:13.354Z,26.57
2023-04-18T08:42:13.364Z,26.54
2023-04-18T08:43:13.267Z,26.54
2023-04-18T08:44:13.493Z,26.52
2023-04-18T08:45:13.479Z,26.49
2023-04-18T08:46:13.179Z,26.47
2023-04-18T08:47:13.228Z,26.45
2023-04-18T08:48:13.147Z,26.47
2023-04-18T08:49:13.424Z,26.42
2023-04-18T08:50:13.567Z,26.39
2023-04-18T08:51:12.999Z,26.16
2023-04-18T08:52:12.941Z,25.89
2023-04-18T08:53:12.919Z,25.73
2023-04-18T08:54:12.878Z,25.65
2023-04-18T08:55:12.831Z,25.55
2023-04-18T08:56:12.793Z,25.54
2023-04-18T08:57:12.778Z,25.51
2023-04-18T08:58:12.770Z,25.50
2023-04-18T08:59:13.004Z,25.47
2023-04-18T09:00:13.026Z,25.44
2023-04-18T09:01:12.700Z,25.44
2023-04-18T09:02:12.708Z,25.44
2023-04-18T09:03:12.623Z,25.40
2023-04-18T09:04:12.579Z,25.40
2023-04-18T09:05:12.517Z,25.40
2023-04-18T09:06:12.550Z,25.37
2023-04-18T09:07:12.474Z,25.37
2023-04-18T09:08:12.441Z,25.36
2023-04-18T09:09:12.643Z,25.33
2023-04-18T09:10:12.668Z,25.33
2023-04-18T09:11:12.474Z,25.30
2023-04-18T09:12:12.495Z,25.34
2023-04-18T09:13:12.506Z,25.37
2023-04-18T09:14:12.712Z,25.43
2023-04-18T09:15:12.526Z,25.48
2023-04-18T09:16:12.610Z,25.53
2023-04-18T09:17:12.578Z,25.57
2023-04-18T09:18:12.631Z,25.64
2023-04-18T09:19:13.146Z,25.68
2023-04-18T09:20:12.523Z,25.74
2023-04-18T09:21:12.557Z,25.81
2023-04-18T09:22:12.540Z,25.85
2023-04-18T09:23:12.516Z,25.92
2023-04-18T09:24:12.779Z,25.96
2023-04-18T09:25:12.551Z,26.01
2023-04-18T09:26:12.503Z,26.01
2023-04-18T09:27:12.452Z,26.12
2023-04-18T09:28:12.449Z,26.16
2023-04-18T09:29:12.537Z,26.21
2023-04-18T09:30:12.468Z,26.29
2023-04-18T09:31:12.454Z,26.31
2023-04-18T09:32:12.377Z,26.33
2023-04-18T09:33:12.386Z,26.39
2023-04-18T09:34:12.533Z,26.40
2023-04-18T09:35:12.557Z,26.46
2023-04-18T09:36:12.410Z,26.50
2023-04-18T09:37:12.395Z,26.40
2023-04-18T09:38:12.382Z,26.31
2023-04-18T09:39:12.502Z,26.23
2023-04-18T09:40:12.330Z,26.21
2023-04-18T09:41:12.415Z,26.23
2023-04-18T09:42:12.311Z,26.21
2023-04-18T09:43:12.325Z,26.26
2023-04-18T09:44:15.005Z,26.26
2023-04-18T09:45:12.522Z,26.18
2023-04-18T09:46:12.190Z,26.02
2023-04-18T09:47:12.134Z,25.89
2023-04-18T09:48:12.145Z,25.73
2023-04-18T09:49:12.313Z,25.64
2023-04-18T09:50:12.577Z,25.63
2023-04-18T09:51:12.054Z,25.65
2023-04-18T09:52:11.995Z,25.68
2023-04-18T09:53:11.959Z,25.75
2023-04-18T09:54:12.256Z,25.84
2023-04-18T09:55:12.018Z,25.89
2023-04-18T09:56:11.835Z,25.94
2023-04-18T09:57:11.792Z,26.05
2023-04-18T09:58:11.757Z,26.11
2023-04-18T09:59:11.816Z,26.18
2023-04-18T10:00:11.664Z,26.26
2023-04-18T10:01:11.627Z,26.28
2023-04-18T10:02:11.623Z,26.36
2023-04-18T10:03:11.602Z,26.40
2023-04-18T10:04:11.631Z,26.42
2023-04-18T10:05:11.533Z,26.45
2023-04-18T10:06:11.453Z,26.53
2023-04-18T10:07:11.358Z,26.54
2023-04-18T10:08:11.349Z,26.63
2023-04-18T10:09:11.408Z,26.64
2023-04-18T10:10:11.264Z,26.66
2023-04-18T10:11:11.189Z,26.69
2023-04-18T10:12:13.070Z,26.70
2023-04-18T10:13:11.105Z,26.72
2023-04-18T10:14:11.010Z,26.72
2023-04-18T10:15:10.985Z,26.77
2023-04-18T10:16:10.928Z,26.77
2023-04-18T10:17:10.863Z,26.79
2023-04-18T10:18:10.875Z,26.83
2023-04-18T10:19:10.849Z,26.84
2023-04-18T10:20:10.716Z,26.83
2023-04-18T10:21:10.640Z,26.84
2023-04-18T10:22:10.627Z,26.83
2023-04-18T10:23:10.636Z,26.86
2023-04-18T10:24:10.639Z,26.86
2023-04-18T10:25:10.643Z,26.87
2023-04-18T10:26:10.663Z,26.89
2023-04-18T10:27:10.629Z,26.91
2023-04-18T10:28:10.683Z,26.93
2023-04-18T10:29:10.683Z,26.93
2023-04-18T10:30:10.680Z,26.94
2023-04-18T10:31:11.073Z,26.97
2023-04-18T10:32:10.654Z,27.01
2023-04-18T10:33:18.402Z,27.03
2023-04-18T10:34:11.584Z,27.08
2023-04-18T10:35:10.518Z,27.08
2023-04-18T10:36:10.457Z,27.14
2023-04-18T10:37:10.412Z,27.15
2023-04-18T10:38:10.382Z,27.15
2023-04-18T10:39:10.363Z,27.17
2023-04-18T10:40:10.275Z,27.18
2023-04-18T10:41:10.547Z,27.21
2023-04-18T10:42:10.158Z,27.23
2023-04-18T10:43:10.101Z,27.30
2023-04-18T10:44:10.050Z,27.34
2023-04-18T10:45:09.996Z,27.37
2023-04-18T10:46:17.344Z,27.40
2023-04-18T10:47:10.933Z,27.44
2023-04-18T10:48:09.961Z,27.41
2023-04-18T10:49:09.785Z,27.28
2023-04-18T10:50:09.728Z,27.10
2023-04-18T10:51:09.738Z,26.91
2023-04-18T10:52:10.893Z,26.70
2023-04-18T10:53:09.857Z,26.46
2023-04-18T10:54:09.848Z,26.28
2023-04-18T10:55:09.828Z,26.16
2023-04-18T10:56:10.043Z,26.14
2023-04-18T10:57:09.760Z,26.14
2023-04-18T10:58:09.777Z,26.22
2023-04-18T10:59:09.740Z,26.25
2023-04-18T11:00:09.771Z,26.31
2023-04-18T11:01:09.814Z,26.38
2023-04-18T11:02:09.734Z,26.43
2023-04-18T11:03:09.886Z,26.50
2023-04-18T11:04:09.885Z,26.56
2023-04-18T11:05:09.793Z,26.64
2023-04-18T11:06:09.778Z,26.73
2023-04-18T11:07:09.762Z,26.83
2023-04-18T11:08:09.733Z,26.89
2023-04-18T11:09:09.786Z,26.93
2023-04-18T11:10:09.949Z,26.95
2023-04-18T11:11:10.038Z,26.98
2023-04-18T11:12:09.737Z,27.03
2023-04-18T11:13:09.726Z,27.05
2023-04-18T11:14:09.702Z,27.10
2023-04-18T11:15:10.710Z,27.11
2023-04-18T11:16:09.642Z,27.17
2023-04-18T11:17:09.592Z,27.20
2023-04-18T11:18:09.510Z,27.23
2023-04-18T11:19:09.388Z,27.27
2023-04-18T11:20:09.381Z,27.27
2023-04-18T11:21:09.279Z,27.30
2023-04-18T11:22:09.236Z,27.33
2023-04-18T11:23:09.199Z,27.37
2023-04-18T11:24:09.109Z,27.35
2023-04-18T11:25:09.109Z,27.37
2023-04-18T11:26:09.023Z,27.40
2023-04-18T11:27:08.935Z,27.38
2023-04-18T11:28:09.575Z,27.41
2023-04-18T11:29:08.839Z,27.40
2023-04-18T11:30:08.839Z,27.38
2023-04-18T11:31:09.554Z,27.38
2023-04-18T11:32:08.760Z,27.40
2023-04-18T11:33:08.960Z,27.42
2023-04-18T11:34:08.640Z,27.38
2023-04-18T11:35:08.522Z,27.40
2023-04-18T11:36:08.576Z,27.40
2023-04-18T11:37:08.467Z,27.34
2023-04-18T11:38:08.430Z,27.33
2023-04-18T11:39:08.410Z,27.34
2023-04-18T11:40:08.397Z,27.33
2023-04-18T11:41:08.363Z,27.31
2023-04-18T11:42:08.320Z,27.30
2023-04-18T11:43:08.310Z,27.27
2023-04-18T11:44:08.282Z,27.28
2023-04-18T11:45:08.260Z,27.27
2023-04-18T11:46:08.258Z,27.25
2023-04-18T11:47:08.442Z,27.21
2023-04-18T11:48:08.245Z,27.23
2023-04-18T11:49:08.150Z,27.24
2023-04-18T11:50:08.191Z,27.25
2023-04-18T11:51:08.125Z,27.24
2023-04-18T11:52:08.125Z,27.28
2023-04-18T11:53:08.112Z,27.27
2023-04-18T11:54:08.072Z,27.30
2023-04-18T11:55:08.075Z,27.30
2023-04-18T11:56:08.103Z,27.31
2023-04-18T11:57:08.265Z,27.28
2023-04-18T11:58:08.002Z,27.25
2023-04-18T11:59:08.019Z,27.27
2023-04-18T12:00:07.963Z,27.27
2023-04-18T12:01:08.091Z,27.24
2023-04-18T12:02:16.012Z,27.27
2023-04-18T12:03:09.998Z,27.25
2023-04-18T12:04:08.167Z,27.25
2023-04-18T12:05:08.186Z,27.27
2023-04-18T12:06:07.814Z,27.25
2023-04-18T12:07:07.672Z,27.24
2023-04-18T12:08:07.630Z,27.27
2023-04-18T12:09:07.583Z,27.30
2023-04-18T12:10:07.520Z,27.27
2023-04-18T12:11:07.484Z,27.28
2023-04-18T12:12:07.406Z,27.28
2023-04-18T12:13:07.353Z,27.30
2023-04-18T12:14:07.327Z,27.30
2023-04-18T12:15:07.326Z,27.31
2023-04-18T12:16:07.301Z,27.30
2023-04-18T12:17:07.228Z,27.31
2023-04-18T12:18:07.218Z,27.34
2023-04-18T12:19:07.128Z,27.31
2023-04-18T12:20:07.092Z,27.34
2023-04-18T12:21:07.092Z,27.34
2023-04-18T12:22:07.008Z,27.34
2023-04-18T12:23:06.960Z,27.34
2023-04-18T12:24:06.927Z,27.33
2023-04-18T12:25:06.877Z,27.31
2023-04-18T12:26:06.831Z,27.33
2023-04-18T12:27:06.768Z,27.31
2023-04-18T12:28:06.700Z,27.31
2023-04-18T12:29:06.674Z,27.30
2023-04-18T12:30:06.593Z,27.25
2023-04-18T12:31:07.133Z,27.25
2023-04-18T12:32:06.524Z,27.24
2023-04-18T12:33:06.551Z,27.21
2023-04-18T12:34:06.418Z,27.17
2023-04-18T12:35:06.409Z,27.14
2023-04-18T12:36:06.317Z,27.10
2023-04-18T12:37:06.294Z,27.11
2023-04-18T12:38:06.248Z,27.05
2023-04-18T12:39:06.187Z,27.05
2023-04-18T12:40:06.131Z,27.03
2023-04-18T12:41:06.059Z,27.03
2023-04-18T12:42:06.045Z,27.01
2023-04-18T12:43:05.942Z,27.03
2023-04-18T12:44:05.911Z,26.98
2023-04-18T12:45:05.916Z,27.00
2023-04-18T12:46:05.902Z,26.98
2023-04-18T12:47:05.936Z,27.00
2023-04-18T12:48:05.962Z,27.01
2023-04-18T12:49:05.865Z,27.01
2023-04-18T12:50:05.886Z,27.03
2023-04-18T12:51:05.855Z,27.03
2023-04-18T12:52:06.116Z,27.01